Aviation Digital Data Service (ADDS)

Output produced by METARs form (0446 UTC 24 January 2019)
found at http://www.aviationweather.gov/metar/data/
 
METAR text: KPHX 240351Z 00000KT 10SM CLR 11/M05 A3016 RMK AO2 SLP210 T01111050
Conditions at: KPHX (PHOENIX/SKY HRBR, AZ, US) observed 0351 UTC 24 January 2019
Temperature: 11.1°C (52°F)
Dewpoint: -5.0°C (23°F) [RH = 32%]
Pressure (altimeter): 30.16 inches Hg (1021.4 mb)
[Sea-level pressure: 1021.0 mb]
Winds: calm
Visibility: 10 or more miles (16+ km)
Ceiling: at least 12,000 feet AGL
Clouds: sky clear below 12,000 feet AGL
Weather: no significant weather observed at this time

METAR text: KPHX 240251Z 30005KT 10SM CLR 14/M08 A3016 RMK AO2 SLP209 T01391083 56001
Conditions at: KPHX (PHOENIX/SKY HRBR, AZ, US) observed 0251 UTC 24 January 2019
Temperature: 13.9°C (57°F)
Dewpoint: -8.3°C (17°F) [RH = 21%]
Pressure (altimeter): 30.16 inches Hg (1021.4 mb)
[Sea-level pressure: 1020.9 mb]
Winds: from the WNW (300 degrees) at 6 MPH (5 knots; 2.6 m/s)
Visibility: 10 or more miles (16+ km)
Ceiling: at least 12,000 feet AGL
Clouds: sky clear below 12,000 feet AGL
Weather: no significant weather observed at this time

METAR text: KPHX 240151Z 25004KT 10SM CLR 13/M07 A3016 RMK AO2 SLP210 T01331072
Conditions at: KPHX (PHOENIX/SKY HRBR, AZ, US) observed 0151 UTC 24 January 2019
Temperature: 13.3°C (56°F)
Dewpoint: -7.2°C (19°F) [RH = 23%]
Pressure (altimeter): 30.16 inches Hg (1021.4 mb)
[Sea-level pressure: 1021.0 mb]
Winds: from the WSW (250 degrees) at 5 MPH (4 knots; 2.1 m/s)
Visibility: 10 or more miles (16+ km)
Ceiling: at least 12,000 feet AGL
Clouds: sky clear below 12,000 feet AGL
Weather: no significant weather observed at this time

METAR text: KPHX 240051Z 24006KT 10SM FEW250 15/M09 A3015 RMK AO2 SLP206 T01501094
Conditions at: KPHX (PHOENIX/SKY HRBR, AZ, US) observed 0051 UTC 24 January 2019
Temperature: 15.0°C (59°F)
Dewpoint: -9.4°C (15°F) [RH = 18%]
Pressure (altimeter): 30.15 inches Hg (1021.1 mb)
[Sea-level pressure: 1020.6 mb]
Winds: from the WSW (240 degrees) at 7 MPH (6 knots; 3.1 m/s)
Visibility: 10 or more miles (16+ km)
Ceiling: at least 12,000 feet AGL
Clouds: few clouds at 25000 feet AGL
Weather: no significant weather observed at this time

METAR text: KPHX 232351Z 23008KT 10SM FEW250 16/M10 A3016 RMK AO2 SLP208 T01611100 10167 20117 56024
Conditions at: KPHX (PHOENIX/SKY HRBR, AZ, US) observed 2351 UTC 23 January 2019
Temperature: 16.1°C (61°F)
Dewpoint: -10.0°C (14°F) [RH = 16%]
Pressure (altimeter): 30.16 inches Hg (1021.4 mb)
[Sea-level pressure: 1020.8 mb]
Winds: from the SW (230 degrees) at 9 MPH (8 knots; 4.1 m/s)
Visibility: 10 or more miles (16+ km)
Ceiling: at least 12,000 feet AGL
Clouds: few clouds at 25000 feet AGL
Weather: no significant weather observed at this time

METAR text: KPHX 232251Z 27003KT 10SM FEW250 16/M11 A3017 RMK AO2 SLP211 T01561106
Conditions at: KPHX (PHOENIX/SKY HRBR, AZ, US) observed 2251 UTC 23 January 2019
Temperature: 15.6°C (60°F)
Dewpoint: -10.6°C (13°F) [RH = 15%]
Pressure (altimeter): 30.17 inches Hg (1021.8 mb)
[Sea-level pressure: 1021.1 mb]
Winds: from the W (270 degrees) at 3 MPH (3 knots; 1.5 m/s)
Visibility: 10 or more miles (16+ km)
Ceiling: at least 12,000 feet AGL
Clouds: few clouds at 25000 feet AGL
Weather: no significant weather observed at this time

METAR text: KPHX 232151Z 00000KT 10SM FEW250 15/M11 A3019 RMK AO2 SLP220 T01501106
Conditions at: KPHX (PHOENIX/SKY HRBR, AZ, US) observed 2151 UTC 23 January 2019
Temperature: 15.0°C (59°F)
Dewpoint: -10.6°C (13°F) [RH = 16%]
Pressure (altimeter): 30.19 inches Hg (1022.4 mb)
[Sea-level pressure: 1022.0 mb]
Winds: calm
Visibility: 10 or more miles (16+ km)
Ceiling: at least 12,000 feet AGL
Clouds: few clouds at 25000 feet AGL
Weather: no significant weather observed at this time

METAR text: KPHX 232051Z 00000KT 10SM FEW250 16/M10 A3023 RMK AO2 SLP232 T01561100 58032
Conditions at: KPHX (PHOENIX/SKY HRBR, AZ, US) observed 2051 UTC 23 January 2019
Temperature: 15.6°C (60°F)
Dewpoint: -10.0°C (14°F) [RH = 16%]
Pressure (altimeter): 30.23 inches Hg (1023.8 mb)
[Sea-level pressure: 1023.2 mb]
Winds: calm
Visibility: 10 or more miles (16+ km)
Ceiling: at least 12,000 feet AGL
Clouds: few clouds at 25000 feet AGL
Weather: no significant weather observed at this time

METAR text: KPHX 231951Z 32004KT 10SM FEW250 14/M09 A3028 RMK AO2 SLP247 T01391094
Conditions at: KPHX (PHOENIX/SKY HRBR, AZ, US) observed 1951 UTC 23 January 2019
Temperature: 13.9°C (57°F)
Dewpoint: -9.4°C (15°F) [RH = 19%]
Pressure (altimeter): 30.28 inches Hg (1025.5 mb)
[Sea-level pressure: 1024.7 mb]
Winds: from the NW (320 degrees) at 5 MPH (4 knots; 2.1 m/s)
Visibility: 10 or more miles (16+ km)
Ceiling: at least 12,000 feet AGL
Clouds: few clouds at 25000 feet AGL
Weather: no significant weather observed at this time

METAR text: KPHX 231851Z 10005KT 10SM FEW250 14/M08 A3031 RMK AO2 SLP258 T01441083
Conditions at: KPHX (PHOENIX/SKY HRBR, AZ, US) observed 1851 UTC 23 January 2019
Temperature: 14.4°C (58°F)
Dewpoint: -8.3°C (17°F) [RH = 20%]
Pressure (altimeter): 30.31 inches Hg (1026.5 mb)
[Sea-level pressure: 1025.8 mb]
Winds: from the E (100 degrees) at 6 MPH (5 knots; 2.6 m/s)
Visibility: 10 or more miles (16+ km)
Ceiling: at least 12,000 feet AGL
Clouds: few clouds at 25000 feet AGL
Weather: no significant weather observed at this time

METAR text: KPHX 231751Z 00000KT 10SM FEW250 12/M07 A3033 RMK AO2 SLP267 T01221072 10122 20033 50005
Conditions at: KPHX (PHOENIX/SKY HRBR, AZ, US) observed 1751 UTC 23 January 2019
Temperature: 12.2°C (54°F)
Dewpoint: -7.2°C (19°F) [RH = 25%]
Pressure (altimeter): 30.33 inches Hg (1027.2 mb)
[Sea-level pressure: 1026.7 mb]
Winds: calm
Visibility: 10 or more miles (16+ km)
Ceiling: at least 12,000 feet AGL
Clouds: few clouds at 25000 feet AGL
Weather: no significant weather observed at this time

METAR text: KPHX 231651Z 00000KT 10SM FEW250 10/M06 A3034 RMK AO2 SLP271 T01001061
Conditions at: KPHX (PHOENIX/SKY HRBR, AZ, US) observed 1651 UTC 23 January 2019
Temperature: 10.0°C (50°F)
Dewpoint: -6.1°C (21°F) [RH = 32%]
Pressure (altimeter): 30.34 inches Hg (1027.5 mb)
[Sea-level pressure: 1027.1 mb]
Winds: calm
Visibility: 10 or more miles (16+ km)
Ceiling: at least 12,000 feet AGL
Clouds: few clouds at 25000 feet AGL
Weather: no significant weather observed at this time

METAR text: KPHX 231551Z 00000KT 10SM CLR 08/M04 A3033 RMK AO2 SLP266 T00781044 $
Conditions at: KPHX (PHOENIX/SKY HRBR, AZ, US) observed 1551 UTC 23 January 2019
Temperature: 7.8°C (46°F)
Dewpoint: -4.4°C (24°F) [RH = 42%]
Pressure (altimeter): 30.33 inches Hg (1027.2 mb)
[Sea-level pressure: 1026.6 mb]
Winds: calm
Visibility: 10 or more miles (16+ km)
Ceiling: at least 12,000 feet AGL
Clouds: sky clear below 12,000 feet AGL
Weather:
SOME DATA ABOVE MAY BE INACCURATE!!!
"$" is an indication the sensor requires maintenance

METAR text: KPHX 231451Z 00000KT 10SM FEW250 05/M04 A3031 RMK AO2 SLP263 T00501039 53010
Conditions at: KPHX (PHOENIX/SKY HRBR, AZ, US) observed 1451 UTC 23 January 2019
Temperature: 5.0°C (41°F)
Dewpoint: -3.9°C (25°F) [RH = 52%]
Pressure (altimeter): 30.31 inches Hg (1026.5 mb)
[Sea-level pressure: 1026.3 mb]
Winds: calm
Visibility: 10 or more miles (16+ km)
Ceiling: at least 12,000 feet AGL
Clouds: few clouds at 25000 feet AGL
Weather: no significant weather observed at this time

METAR text: KPHX 231351Z 00000KT 10SM CLR 06/M04 A3029 RMK AO2 SLP253 T00561039
Conditions at: KPHX (PHOENIX/SKY HRBR, AZ, US) observed 1351 UTC 23 January 2019
Temperature: 5.6°C (42°F)
Dewpoint: -3.9°C (25°F) [RH = 50%]
Pressure (altimeter): 30.29 inches Hg (1025.8 mb)
[Sea-level pressure: 1025.3 mb]
Winds: calm
Visibility: 10 or more miles (16+ km)
Ceiling: at least 12,000 feet AGL
Clouds: sky clear below 12,000 feet AGL
Weather: no significant weather observed at this time

METAR text: KPHX 231251Z 00000KT 10SM CLR 05/M04 A3028 RMK AO2 SLP251 T00501039 $
Conditions at: KPHX (PHOENIX/SKY HRBR, AZ, US) observed 1251 UTC 23 January 2019
Temperature: 5.0°C (41°F)
Dewpoint: -3.9°C (25°F) [RH = 52%]
Pressure (altimeter): 30.28 inches Hg (1025.5 mb)
[Sea-level pressure: 1025.1 mb]
Winds: calm
Visibility: 10 or more miles (16+ km)
Ceiling: at least 12,000 feet AGL
Clouds: sky clear below 12,000 feet AGL
Weather:
SOME DATA ABOVE MAY BE INACCURATE!!!
"$" is an indication the sensor requires maintenance

METAR text: KPHX 231151Z 00000KT 10SM CLR 06/M05 A3028 RMK AO2 SLP250 T00561050 10122 20056 50000 $
Conditions at: KPHX (PHOENIX/SKY HRBR, AZ, US) observed 1151 UTC 23 January 2019
Temperature: 5.6°C (42°F)
Dewpoint: -5.0°C (23°F) [RH = 46%]
Pressure (altimeter): 30.28 inches Hg (1025.5 mb)
[Sea-level pressure: 1025.0 mb]
Winds: calm
Visibility: 10 or more miles (16+ km)
Ceiling: at least 12,000 feet AGL
Clouds: sky clear below 12,000 feet AGL
Weather:
SOME DATA ABOVE MAY BE INACCURATE!!!
"$" is an indication the sensor requires maintenance

METAR text: KPHX 231051Z 26004KT 10SM CLR 07/M06 A3028 RMK AO2 SLP250 T00671056
Conditions at: KPHX (PHOENIX/SKY HRBR, AZ, US) observed 1051 UTC 23 January 2019
Temperature: 6.7°C (44°F)
Dewpoint: -5.6°C (22°F) [RH = 41%]
Pressure (altimeter): 30.28 inches Hg (1025.5 mb)
[Sea-level pressure: 1025.0 mb]
Winds: from the W (260 degrees) at 5 MPH (4 knots; 2.1 m/s)
Visibility: 10 or more miles (16+ km)
Ceiling: at least 12,000 feet AGL
Clouds: sky clear below 12,000 feet AGL
Weather: no significant weather observed at this time

METAR text: KPHX 230951Z 22005KT 10SM CLR 06/M04 A3029 RMK AO2 SLP253 T00611044
Conditions at: KPHX (PHOENIX/SKY HRBR, AZ, US) observed 0951 UTC 23 January 2019
Temperature: 6.1°C (43°F)
Dewpoint: -4.4°C (24°F) [RH = 47%]
Pressure (altimeter): 30.29 inches Hg (1025.8 mb)
[Sea-level pressure: 1025.3 mb]
Winds: from the SW (220 degrees) at 6 MPH (5 knots; 2.6 m/s)
Visibility: 10 or more miles (16+ km)
Ceiling: at least 12,000 feet AGL
Clouds: sky clear below 12,000 feet AGL
Weather: no significant weather observed at this time

METAR text: KPHX 230851Z 27004KT 10SM CLR 09/M07 A3028 RMK AO2 SLP249 T00941072 53012
Conditions at: KPHX (PHOENIX/SKY HRBR, AZ, US) observed 0851 UTC 23 January 2019
Temperature: 9.4°C (49°F)
Dewpoint: -7.2°C (19°F) [RH = 30%]
Pressure (altimeter): 30.28 inches Hg (1025.5 mb)
[Sea-level pressure: 1024.9 mb]
Winds: from the W (270 degrees) at 5 MPH (4 knots; 2.1 m/s)
Visibility: 10 or more miles (16+ km)
Ceiling: at least 12,000 feet AGL
Clouds: sky clear below 12,000 feet AGL
Weather: no significant weather observed at this time

METAR text: KPHX 230751Z 03007KT 10SM CLR 12/M09 A3026 RMK AO2 SLP242 T01171089
Conditions at: KPHX (PHOENIX/SKY HRBR, AZ, US) observed 0751 UTC 23 January 2019
Temperature: 11.7°C (53°F)
Dewpoint: -8.9°C (16°F) [RH = 23%]
Pressure (altimeter): 30.26 inches Hg (1024.8 mb)
[Sea-level pressure: 1024.2 mb]
Winds: from the NNE (30 degrees) at 8 MPH (7 knots; 3.6 m/s)
Visibility: 10 or more miles (16+ km)
Ceiling: at least 12,000 feet AGL
Clouds: sky clear below 12,000 feet AGL
Weather: no significant weather observed at this time

METAR text: KPHX 230651Z 05004KT 10SM CLR 12/M08 A3025 RMK AO2 SLP238 T01171083 401780061
Conditions at: KPHX (PHOENIX/SKY HRBR, AZ, US) observed 0651 UTC 23 January 2019
Temperature: 11.7°C (53°F)
Dewpoint: -8.3°C (17°F) [RH = 24%]
Pressure (altimeter): 30.25 inches Hg (1024.5 mb)
[Sea-level pressure: 1023.8 mb]
Winds: from the NE (50 degrees) at 5 MPH (4 knots; 2.1 m/s)
Visibility: 10 or more miles (16+ km)
Ceiling: at least 12,000 feet AGL
Clouds: sky clear below 12,000 feet AGL
Weather: no significant weather observed at this time

METAR text: KPHX 230551Z 00000KT 10SM CLR 11/M04 A3024 RMK AO2 SLP236 T01111044 10172 20100 51024
Conditions at: KPHX (PHOENIX/SKY HRBR, AZ, US) observed 0551 UTC 23 January 2019
Temperature: 11.1°C (52°F)
Dewpoint: -4.4°C (24°F) [RH = 33%]
Pressure (altimeter): 30.24 inches Hg (1024.1 mb)
[Sea-level pressure: 1023.6 mb]
Winds: calm
Visibility: 10 or more miles (16+ km)
Ceiling: at least 12,000 feet AGL
Clouds: sky clear below 12,000 feet AGL
Weather: no significant weather observed at this time

METAR text: KPHX 230451Z 24004KT 10SM CLR 11/M04 A3023 RMK AO2 SLP234 T01111039
Conditions at: KPHX (PHOENIX/SKY HRBR, AZ, US) observed 0451 UTC 23 January 2019
Temperature: 11.1°C (52°F)
Dewpoint: -3.9°C (25°F) [RH = 35%]
Pressure (altimeter): 30.23 inches Hg (1023.8 mb)
[Sea-level pressure: 1023.4 mb]
Winds: from the WSW (240 degrees) at 5 MPH (4 knots; 2.1 m/s)
Visibility: 10 or more miles (16+ km)
Ceiling: at least 12,000 feet AGL
Clouds: sky clear below 12,000 feet AGL
Weather: no significant weather observed at this time

METAR text: KPHX 230351Z VRB05KT 10SM CLR 14/M06 A3020 RMK AO2 SLP223 T01391061
Conditions at: KPHX (PHOENIX/SKY HRBR, AZ, US) observed 0351 UTC 23 January 2019
Temperature: 13.9°C (57°F)
Dewpoint: -6.1°C (21°F) [RH = 24%]
Pressure (altimeter): 30.20 inches Hg (1022.8 mb)
[Sea-level pressure: 1022.3 mb]
Winds: variable direction winds at 6 MPH (5 knots; 2.6 m/s)
Visibility: 10 or more miles (16+ km)
Ceiling: at least 12,000 feet AGL
Clouds: sky clear below 12,000 feet AGL
Weather: no significant weather observed at this time

METAR text: KPHX 230251Z 00000KT 10SM CLR 14/M06 A3017 RMK AO2 SLP213 T01391056 51024
Conditions at: KPHX (PHOENIX/SKY HRBR, AZ, US) observed 0251 UTC 23 January 2019
Temperature: 13.9°C (57°F)
Dewpoint: -5.6°C (22°F) [RH = 25%]
Pressure (altimeter): 30.17 inches Hg (1021.8 mb)
[Sea-level pressure: 1021.3 mb]
Winds: calm
Visibility: 10 or more miles (16+ km)
Ceiling: at least 12,000 feet AGL
Clouds: sky clear below 12,000 feet AGL
Weather: no significant weather observed at this time

METAR text: KPHX 230151Z 25005KT 10SM FEW080 14/M05 A3015 RMK AO2 SLP205 T01441050
Conditions at: KPHX (PHOENIX/SKY HRBR, AZ, US) observed 0151 UTC 23 January 2019
Temperature: 14.4°C (58°F)
Dewpoint: -5.0°C (23°F) [RH = 26%]
Pressure (altimeter): 30.15 inches Hg (1021.1 mb)
[Sea-level pressure: 1020.5 mb]
Winds: from the WSW (250 degrees) at 6 MPH (5 knots; 2.6 m/s)
Visibility: 10 or more miles (16+ km)
Ceiling: at least 12,000 feet AGL
Clouds: few clouds at 8000 feet AGL
Weather: no significant weather observed at this time

METAR text: KPHX 230051Z 22009KT 10SM FEW080 16/M06 A3013 RMK AO2 SLP196 T01561056
Conditions at: KPHX (PHOENIX/SKY HRBR, AZ, US) observed 0051 UTC 23 January 2019
Temperature: 15.6°C (60°F)
Dewpoint: -5.6°C (22°F) [RH = 23%]
Pressure (altimeter): 30.13 inches Hg (1020.4 mb)
[Sea-level pressure: 1019.6 mb]
Winds: from the SW (220 degrees) at 10 MPH (9 knots; 4.6 m/s)
Visibility: 10 or more miles (16+ km)
Ceiling: at least 12,000 feet AGL
Clouds: few clouds at 8000 feet AGL
Weather: no significant weather observed at this time

METAR text: KPHX 222351Z 30004KT 10SM FEW080 17/M08 A3010 RMK AO2 SLP186 T01721078 10178 20128 53005
Conditions at: KPHX (PHOENIX/SKY HRBR, AZ, US) observed 2351 UTC 22 January 2019
Temperature: 17.2°C (63°F)
Dewpoint: -7.8°C (18°F) [RH = 17%]
Pressure (altimeter): 30.10 inches Hg (1019.4 mb)
[Sea-level pressure: 1018.6 mb]
Winds: from the WNW (300 degrees) at 5 MPH (4 knots; 2.1 m/s)
Visibility: 10 or more miles (16+ km)
Ceiling: at least 12,000 feet AGL
Clouds: few clouds at 8000 feet AGL
Weather: no significant weather observed at this time

METAR text: KPHX 222251Z VRB06KT 10SM FEW080 17/M07 A3009 RMK AO2 SLP182 T01721072
Conditions at: KPHX (PHOENIX/SKY HRBR, AZ, US) observed 2251 UTC 22 January 2019
Temperature: 17.2°C (63°F)
Dewpoint: -7.2°C (19°F) [RH = 18%]
Pressure (altimeter): 30.09 inches Hg (1019.0 mb)
[Sea-level pressure: 1018.2 mb]
Winds: variable direction winds at 7 MPH (6 knots; 3.1 m/s)
Visibility: 10 or more miles (16+ km)
Ceiling: at least 12,000 feet AGL
Clouds: few clouds at 8000 feet AGL
Weather: no significant weather observed at this time

METAR text: KPHX 222151Z 24006KT 10SM FEW080 17/M07 A3008 RMK AO2 SLP181 T01671067
Conditions at: KPHX (PHOENIX/SKY HRBR, AZ, US) observed 2151 UTC 22 January 2019
Temperature: 16.7°C (62°F)
Dewpoint: -6.7°C (20°F) [RH = 19%]
Pressure (altimeter): 30.08 inches Hg (1018.7 mb)
[Sea-level pressure: 1018.1 mb]
Winds: from the WSW (240 degrees) at 7 MPH (6 knots; 3.1 m/s)
Visibility: 10 or more miles (16+ km)
Ceiling: at least 12,000 feet AGL
Clouds: few clouds at 8000 feet AGL
Weather: no significant weather observed at this time

METAR text: KPHX 222051Z 00000KT 10SM FEW080 FEW100 16/M07 A3008 RMK AO2 SLP180 T01611067 58004
Conditions at: KPHX (PHOENIX/SKY HRBR, AZ, US) observed 2051 UTC 22 January 2019
Temperature: 16.1°C (61°F)
Dewpoint: -6.7°C (20°F) [RH = 20%]
Pressure (altimeter): 30.08 inches Hg (1018.7 mb)
[Sea-level pressure: 1018.0 mb]
Winds: calm
Visibility: 10 or more miles (16+ km)
Ceiling: at least 12,000 feet AGL
Clouds: few clouds at 8000 feet AGL
few clouds at 10000 feet AGL
Weather: no significant weather observed at this time

METAR text: KPHX 221951Z 29006KT 10SM FEW080 FEW100 15/M06 A3009 RMK AO2 SLP185 T01501061
Conditions at: KPHX (PHOENIX/SKY HRBR, AZ, US) observed 1951 UTC 22 January 2019
Temperature: 15.0°C (59°F)
Dewpoint: -6.1°C (21°F) [RH = 23%]
Pressure (altimeter): 30.09 inches Hg (1019.0 mb)
[Sea-level pressure: 1018.5 mb]
Winds: from the WNW (290 degrees) at 7 MPH (6 knots; 3.1 m/s)
Visibility: 10 or more miles (16+ km)
Ceiling: at least 12,000 feet AGL
Clouds: few clouds at 8000 feet AGL
few clouds at 10000 feet AGL
Weather: no significant weather observed at this time

METAR text: KPHX 221851Z 31006KT 10SM FEW080 FEW100 14/M06 A3010 RMK AO2 SLP188 T01391056
Conditions at: KPHX (PHOENIX/SKY HRBR, AZ, US) observed 1851 UTC 22 January 2019
Temperature: 13.9°C (57°F)
Dewpoint: -5.6°C (22°F) [RH = 25%]
Pressure (altimeter): 30.10 inches Hg (1019.4 mb)
[Sea-level pressure: 1018.8 mb]
Winds: from the NW (310 degrees) at 7 MPH (6 knots; 3.1 m/s)
Visibility: 10 or more miles (16+ km)
Ceiling: at least 12,000 feet AGL
Clouds: few clouds at 8000 feet AGL
few clouds at 10000 feet AGL
Weather: no significant weather observed at this time

METAR text: KPHX 221751Z 29006KT 10SM FEW080 13/M05 A3009 RMK AO2 SLP185 T01281050 10133 20061 51021
Conditions at: KPHX (PHOENIX/SKY HRBR, AZ, US) observed 1751 UTC 22 January 2019
Temperature: 12.8°C (55°F)
Dewpoint: -5.0°C (23°F) [RH = 29%]
Pressure (altimeter): 30.09 inches Hg (1019.0 mb)
[Sea-level pressure: 1018.5 mb]
Winds: from the WNW (290 degrees) at 7 MPH (6 knots; 3.1 m/s)
Visibility: 10 or more miles (16+ km)
Ceiling: at least 12,000 feet AGL
Clouds: few clouds at 8000 feet AGL
Weather: no significant weather observed at this time

METAR text: KPHX 221651Z 26006KT 10SM FEW080 FEW250 11/M02 A3007 RMK AO2 SLP178 T01111022
Conditions at: KPHX (PHOENIX/SKY HRBR, AZ, US) observed 1651 UTC 22 January 2019
Temperature: 11.1°C (52°F)
Dewpoint: -2.2°C (28°F) [RH = 39%]
Pressure (altimeter): 30.07 inches Hg (1018.4 mb)
[Sea-level pressure: 1017.8 mb]
Winds: from the W (260 degrees) at 7 MPH (6 knots; 3.1 m/s)
Visibility: 10 or more miles (16+ km)
Ceiling: at least 12,000 feet AGL
Clouds: few clouds at 8000 feet AGL
few clouds at 25000 feet AGL
Weather: no significant weather observed at this time

Forecast for: KPHX (PHOENIX/SKY HRBR, AZ, US)
Text: KPHX 240259Z 2403/2506 28005KT P6SM SKC
Forecast period: 0300 to 0500 UTC 24 January 2019
Forecast type: FROM: standard forecast or significant change
Winds: from the W (280 degrees) at 6 MPH (5 knots; 2.6 m/s)
Visibility: 6 or more miles 10+ km)
Clouds: clear skies
Weather: no significant weather forecast for this period
Text: FM240500 09005KT P6SM SKC
Forecast period: 0500 to 2200 UTC 24 January 2019
Forecast type: FROM: standard forecast or significant change
Winds: from the E (90 degrees) at 6 MPH (5 knots; 2.6 m/s)
Visibility: 6 or more miles 10+ km)
Clouds: clear skies
Weather: no significant weather forecast for this period
Text: FM242200 29005KT P6SM SKC
Forecast period: 2200 UTC 24 January 2019 to 0600 UTC 25 January 2019
Forecast type: FROM: standard forecast or significant change
Winds: from the WNW (290 degrees) at 6 MPH (5 knots; 2.6 m/s)
Visibility: 6 or more miles 10+ km)
Clouds: clear skies
Weather: no significant weather forecast for this period